createdAt,value
2018-02-08T00:02:06.325Z,-0.10
2018-02-08T00:04:35.361Z,-0.10
2018-02-08T00:07:02.911Z,-0.10
2018-02-08T00:09:30.433Z,-0.10
2018-02-08T00:11:57.943Z,-0.20
2018-02-08T00:14:26.042Z,-0.10
2018-02-08T00:16:53.679Z,-0.10
2018-02-08T00:19:21.266Z,-0.10
2018-02-08T00:21:48.894Z,-0.20
2018-02-08T00:24:16.382Z,-0.20
2018-02-08T00:26:43.903Z,-0.10
2018-02-08T00:29:11.556Z,-0.10
2018-02-08T00:31:40.156Z,-0.20
2018-02-08T00:34:09.584Z,-0.20
2018-02-08T00:36:37.118Z,-0.20
2018-02-08T00:39:04.714Z,-0.20
2018-02-08T00:41:32.724Z,-0.20
2018-02-08T00:44:00.998Z,-0.20
2018-02-08T00:46:29.249Z,-0.10
2018-02-08T00:48:57.490Z,-0.20
2018-02-08T00:51:24.981Z,-0.20
2018-02-08T00:53:52.525Z,-0.20
2018-02-08T00:56:20.021Z,-0.20
2018-02-08T00:58:48.291Z,-0.10
2018-02-08T01:01:15.871Z,-0.20
2018-02-08T01:03:44.117Z,-0.20
2018-02-08T01:06:11.611Z,-0.20
2018-02-08T01:08:39.159Z,-0.20
2018-02-08T01:11:07.430Z,-0.20
2018-02-08T01:13:35.709Z,-0.20
2018-02-08T01:16:03.979Z,-0.20
2018-02-08T01:18:32.259Z,-0.30
2018-02-08T01:21:00.524Z,-0.30
2018-02-08T01:23:29.082Z,-0.20
2018-02-08T01:25:56.576Z,-0.30
2018-02-08T01:28:24.943Z,-0.20
2018-02-08T01:30:52.436Z,-0.20
2018-02-08T01:33:19.914Z,-0.20
2018-02-08T01:35:47.404Z,-0.20
2018-02-08T01:38:14.992Z,-0.30
2018-02-08T01:40:43.237Z,-0.30
2018-02-08T01:43:10.730Z,-0.30
2018-02-08T01:45:38.977Z,-0.20
2018-02-08T01:48:07.973Z,-0.20
2018-02-08T01:50:36.973Z,-0.20
2018-02-08T01:53:05.215Z,-0.10
2018-02-08T01:55:32.700Z,-0.20
2018-02-08T01:58:00.191Z,-0.10
2018-02-08T02:00:28.437Z,-0.10
2018-02-08T02:02:56.013Z,-0.10
2018-02-08T02:05:23.507Z,-0.10
2018-02-08T02:07:50.989Z,-0.10
2018-02-08T02:10:18.523Z,-0.10
2018-02-08T02:12:46.015Z,-0.10
2018-02-08T02:15:13.518Z,-0.10
2018-02-08T02:17:41.790Z,-0.10
2018-02-08T02:20:10.092Z,-0.10
2018-02-08T02:22:37.886Z,-0.10
2018-02-08T02:25:05.371Z,-0.10
2018-02-08T02:27:33.634Z,-0.20
2018-02-08T02:30:01.235Z,-0.20
2018-02-08T02:32:28.786Z,-0.10
2018-02-08T02:34:57.050Z,-0.10
2018-02-08T02:37:24.532Z,-0.10
2018-02-08T02:39:52.783Z,-0.20
2018-02-08T02:42:20.274Z,-0.20
2018-02-08T02:44:47.755Z,-0.10
2018-02-08T02:47:15.270Z,-0.10
2018-02-08T02:49:43.526Z,-0.10
2018-02-08T02:52:11.010Z,-0.10
2018-02-08T02:54:39.262Z,-0.20
2018-02-08T02:57:06.756Z,-0.20
2018-02-08T02:59:35.002Z,-0.20
2018-02-08T03:02:03.250Z,-0.20
2018-02-08T03:04:30.845Z,-0.20
2018-02-08T03:06:58.335Z,-0.20
2018-02-08T03:09:25.833Z,-0.20
2018-02-08T03:11:53.323Z,-0.20
2018-02-08T03:14:21.635Z,-0.20
2018-02-08T03:16:49.116Z,-0.20
2018-02-08T03:19:16.611Z,-0.20
2018-02-08T03:21:44.094Z,-0.20
2018-02-08T03:24:12.355Z,-0.20
2018-02-08T03:26:40.635Z,-0.20
2018-02-08T03:29:08.891Z,-0.30
2018-02-08T03:31:37.884Z,-0.30
2018-02-08T03:34:06.143Z,-0.30
2018-02-08T03:36:33.652Z,-0.30
2018-02-08T03:39:01.906Z,-0.20
2018-02-08T03:41:29.398Z,-0.30
2018-02-08T03:43:56.922Z,-0.20
2018-02-08T03:46:25.207Z,-0.20
2018-02-08T03:48:52.709Z,-0.20
2018-02-08T03:51:20.228Z,-0.20
2018-02-08T03:53:48.474Z,-0.30
2018-02-08T03:56:16.058Z,-0.30
2018-02-08T03:58:44.301Z,-0.30
2018-02-08T04:01:11.782Z,-0.30
2018-02-08T04:03:39.361Z,-0.20
2018-02-08T04:06:07.598Z,-0.20
2018-02-08T04:08:35.076Z,-0.30
2018-02-08T04:11:02.566Z,-0.20
2018-02-08T04:13:30.041Z,-0.20
2018-02-08T04:15:57.525Z,-0.20
2018-02-08T04:18:25.131Z,-0.20
2018-02-08T04:20:53.369Z,-0.30
2018-02-08T04:23:20.861Z,-0.30
2018-02-08T04:25:49.113Z,-0.20
2018-02-08T04:28:17.375Z,-0.20
2018-02-08T04:30:44.855Z,-0.30
2018-02-08T04:33:12.751Z,-0.30
2018-02-08T04:35:40.996Z,-0.20
2018-02-08T04:38:09.251Z,-0.20
2018-02-08T04:40:48.623Z,-0.30
2018-02-08T04:43:28.718Z,-0.30
2018-02-08T04:46:08.130Z,-0.30
2018-02-08T04:48:36.398Z,-0.30
2018-02-08T04:51:04.674Z,-0.30
2018-02-08T04:53:32.946Z,-0.30
2018-02-08T04:56:01.192Z,-0.40
2018-02-08T04:58:28.674Z,-0.40
2018-02-08T05:00:56.242Z,-0.30
2018-02-08T05:03:24.514Z,-0.40
2018-02-08T05:05:52.761Z,-0.40
2018-02-08T05:08:20.500Z,-0.50
2018-02-08T05:10:47.977Z,-0.40
2018-02-08T05:13:15.511Z,-0.50
2018-02-08T05:15:43.003Z,-0.40
2018-02-08T05:18:10.487Z,-0.40
2018-02-08T05:20:37.971Z,-0.50
2018-02-08T05:23:05.513Z,-0.40
2018-02-08T05:25:33.757Z,-0.50
2018-02-08T05:28:01.247Z,-0.50
2018-02-08T05:30:29.505Z,-0.40
2018-02-08T05:32:57.819Z,-0.30
2018-02-08T05:35:26.031Z,-0.40
2018-02-08T05:37:53.535Z,-0.40
2018-02-08T05:40:21.814Z,-0.40
2018-02-08T05:42:50.075Z,-0.40
2018-02-08T05:45:17.562Z,-0.40
2018-02-08T05:47:45.046Z,-0.40
2018-02-08T05:50:12.562Z,-0.40
2018-02-08T05:52:40.814Z,-0.50
2018-02-08T05:55:08.304Z,-0.50
2018-02-08T05:57:36.554Z,-0.50
2018-02-08T06:00:04.830Z,-0.50
2018-02-08T06:02:33.078Z,-0.50
2018-02-08T06:05:00.558Z,-0.50
2018-02-08T06:07:28.050Z,-0.50
2018-02-08T06:09:56.323Z,-0.40
2018-02-08T06:12:24.596Z,-0.50
2018-02-08T06:14:52.853Z,-0.50
2018-02-08T06:17:21.103Z,-0.60
2018-02-08T06:19:48.611Z,-0.60
2018-02-08T06:22:16.879Z,-0.60
2018-02-08T06:24:45.178Z,-0.60
2018-02-08T06:27:12.723Z,-0.60
2018-02-08T06:29:40.983Z,-0.70
2018-02-08T06:32:09.241Z,-0.70
2018-02-08T06:34:36.735Z,-0.70
2018-02-08T06:37:05.019Z,-0.70
2018-02-08T06:39:33.262Z,-0.70
2018-02-08T06:42:00.842Z,-0.70
2018-02-08T06:44:29.106Z,-0.70
2018-02-08T06:46:57.394Z,-0.60
2018-02-08T06:49:25.650Z,-0.60
2018-02-08T06:51:53.238Z,-0.60
2018-02-08T06:54:21.555Z,-0.60
2018-02-08T06:56:49.064Z,-0.60
2018-02-08T06:59:16.558Z,-0.60
2018-02-08T07:01:44.052Z,-0.50
2018-02-08T07:04:11.534Z,-0.50
2018-02-08T07:06:39.109Z,-0.50
2018-02-08T07:09:07.377Z,-0.30
2018-02-08T07:11:34.911Z,-0.40
2018-02-08T07:14:02.405Z,-0.30
2018-02-08T07:16:30.679Z,-0.30
2018-02-08T07:18:58.953Z,-0.10
2018-02-08T07:21:27.215Z,0.00
2018-02-08T07:23:56.219Z,-0.10
2018-02-08T07:26:25.369Z,-0.10
2018-02-08T07:28:52.869Z,-0.10
2018-02-08T07:31:22.047Z,0.00
2018-02-08T07:33:49.540Z,0.00
2018-02-08T07:36:17.818Z,0.10
2018-02-08T07:38:46.066Z,0.10
2018-02-08T07:41:13.549Z,0.00
2018-02-08T07:43:41.874Z,0.10
2018-02-08T07:46:09.350Z,0.10
2018-02-08T07:48:36.830Z,0.20
2018-02-08T07:51:05.090Z,0.30
2018-02-08T07:53:32.569Z,0.30
2018-02-08T07:56:00.958Z,0.30
2018-02-08T07:58:29.221Z,0.50
2018-02-08T08:00:56.694Z,0.40
2018-02-08T08:03:24.951Z,0.60
2018-02-08T08:05:52.445Z,0.60
2018-02-08T08:08:19.926Z,0.70
2018-02-08T08:10:47.404Z,0.80
2018-02-08T08:13:14.900Z,0.90
2018-02-08T08:15:43.145Z,1.00
2018-02-08T08:18:10.621Z,1.00
2018-02-08T08:20:38.189Z,1.20
2018-02-08T08:23:06.461Z,1.30
2018-02-08T08:25:33.939Z,1.30
2018-02-08T08:28:02.189Z,1.50
2018-02-08T08:30:30.433Z,1.60
2018-02-08T08:32:58.027Z,1.50
2018-02-08T08:35:25.601Z,1.70
2018-02-08T08:37:53.843Z,1.90
2018-02-08T08:40:21.410Z,1.90
2018-02-08T08:42:50.406Z,2.00
2018-02-08T08:45:17.895Z,2.00
2018-02-08T08:47:46.138Z,2.10
2018-02-08T08:50:13.622Z,2.10
2018-02-08T08:52:41.870Z,2.20
2018-02-08T08:55:10.118Z,2.20
2018-02-08T08:57:37.630Z,2.20
2018-02-08T09:00:05.870Z,2.50
2018-02-08T09:02:33.348Z,2.50
2018-02-08T09:05:00.842Z,2.70
2018-02-08T09:07:28.340Z,2.70
2018-02-08T09:09:55.809Z,2.70
2018-02-08T09:12:23.301Z,2.90
2018-02-08T09:14:51.573Z,2.80
2018-02-08T09:17:19.822Z,2.80
2018-02-08T09:19:47.320Z,2.70
2018-02-08T09:22:15.562Z,2.90
2018-02-08T09:24:43.047Z,2.80
2018-02-08T09:27:11.313Z,2.90
2018-02-08T09:29:38.873Z,2.90
2018-02-08T09:32:07.119Z,3.00
2018-02-08T09:34:34.709Z,2.90
2018-02-08T09:37:02.187Z,2.90
2018-02-08T09:39:30.438Z,3.40
2018-02-08T09:41:57.926Z,3.40
2018-02-08T09:44:25.402Z,3.30
2018-02-08T09:46:52.880Z,3.50
2018-02-08T09:49:20.378Z,3.50
2018-02-08T09:51:48.655Z,3.80
2018-02-08T09:54:16.902Z,3.80
2018-02-08T09:56:44.410Z,3.80
2018-02-08T09:59:11.892Z,3.80
2018-02-08T10:01:39.436Z,3.80
2018-02-08T10:04:06.974Z,3.80
2018-02-08T10:06:35.226Z,4.00
2018-02-08T10:09:02.710Z,4.00
2018-02-08T10:11:30.971Z,3.60
2018-02-08T10:13:58.543Z,3.60
2018-02-08T10:16:26.789Z,3.50
2018-02-08T10:18:54.377Z,3.50
2018-02-08T10:21:22.629Z,3.50
2018-02-08T10:23:50.235Z,3.50
2018-02-08T10:26:17.724Z,3.50
2018-02-08T10:28:45.230Z,3.70
2018-02-08T10:31:13.629Z,3.50
2018-02-08T10:33:41.125Z,3.50
2018-02-08T10:36:08.630Z,3.80
2018-02-08T10:38:36.925Z,4.30
2018-02-08T10:41:04.387Z,4.30
2018-02-08T10:43:31.870Z,4.50
2018-02-08T10:45:59.402Z,4.40
2018-02-08T10:48:26.886Z,4.30
2018-02-08T10:50:54.390Z,4.30
2018-02-08T10:53:22.646Z,4.40
2018-02-08T10:55:50.138Z,4.30
2018-02-08T10:58:18.412Z,4.10
2018-02-08T11:00:46.666Z,4.40
2018-02-08T11:03:14.287Z,4.40
2018-02-08T11:05:41.763Z,4.20
2018-02-08T11:08:09.245Z,4.10
2018-02-08T11:10:36.825Z,4.20
2018-02-08T11:13:05.082Z,4.30
2018-02-08T11:15:32.558Z,4.30
2018-02-08T11:18:00.825Z,4.20
2018-02-08T11:20:29.429Z,4.30
2018-02-08T11:22:57.707Z,4.40
2018-02-08T11:25:25.267Z,4.40
2018-02-08T11:27:53.684Z,4.30
2018-02-08T11:30:21.951Z,4.30
2018-02-08T11:32:49.447Z,4.30
2018-02-08T11:35:17.027Z,4.60
2018-02-08T11:37:45.277Z,4.90
2018-02-08T11:40:12.770Z,4.90
2018-02-08T11:42:41.061Z,5.30
2018-02-08T11:45:08.554Z,5.30
2018-02-08T11:47:36.050Z,5.50
2018-02-08T11:50:04.298Z,5.20
2018-02-08T11:52:32.066Z,5.20
2018-02-08T11:54:59.658Z,5.30
2018-02-08T11:57:27.933Z,6.00
2018-02-08T11:59:56.210Z,6.00
2018-02-08T12:02:24.462Z,6.20
2018-02-08T12:04:52.055Z,6.20
2018-02-08T12:07:20.297Z,6.60
2018-02-08T12:09:47.792Z,6.50
2018-02-08T12:12:16.068Z,7.60
2018-02-08T12:14:44.369Z,7.50
2018-02-08T12:17:11.888Z,7.50
2018-02-08T12:19:39.371Z,7.50
2018-02-08T12:22:06.869Z,7.60
2018-02-08T12:24:34.474Z,8.40
2018-02-08T12:27:02.721Z,8.50
2018-02-08T12:29:30.309Z,8.50
2018-02-08T12:31:58.623Z,8.90
2018-02-08T12:34:26.149Z,8.90
2018-02-08T12:36:54.419Z,8.70
2018-02-08T12:39:22.699Z,9.00
2018-02-08T12:41:50.950Z,8.00
2018-02-08T12:44:19.947Z,8.00
2018-02-08T12:46:47.428Z,8.00
2018-02-08T12:49:15.703Z,7.60
2018-02-08T12:51:43.954Z,7.10
2018-02-08T12:54:11.438Z,7.10
2018-02-08T12:56:39.682Z,7.00
2018-02-08T12:59:07.166Z,7.00
2018-02-08T13:01:35.426Z,7.20
2018-02-08T13:04:02.898Z,7.10
2018-02-08T13:06:30.462Z,7.00
2018-02-08T13:09:01.075Z,6.40
2018-02-08T13:11:28.602Z,6.40
2018-02-08T13:13:56.076Z,6.20
2018-02-08T13:16:23.805Z,5.90
2018-02-08T13:18:51.338Z,5.20
2018-02-08T13:21:19.587Z,5.20
2018-02-08T13:23:47.075Z,5.10
2018-02-08T13:26:15.334Z,4.60
2018-02-08T13:28:42.901Z,4.50
2018-02-08T13:31:29.241Z,4.50
2018-02-08T13:33:56.735Z,4.50
2018-02-08T13:36:30.037Z,4.90
2018-02-08T13:38:57.512Z,4.70
2018-02-08T13:41:24.995Z,4.80
2018-02-08T13:43:52.778Z,4.70
2018-02-08T13:46:20.643Z,4.50
2018-02-08T13:48:49.013Z,4.40
2018-02-08T13:51:22.419Z,4.10
2018-02-08T14:07:15.768Z,4.00
2018-02-08T14:09:43.396Z,3.80
2018-02-08T14:12:10.914Z,3.70
2018-02-08T14:14:38.409Z,3.60
2018-02-08T14:17:05.883Z,3.60
2018-02-08T14:19:34.126Z,3.50
2018-02-08T14:22:01.727Z,3.50
2018-02-08T14:24:29.367Z,3.50
2018-02-08T14:26:56.865Z,3.50
2018-02-08T14:29:24.389Z,3.50
2018-02-08T14:31:52.633Z,3.40
2018-02-08T14:34:20.124Z,3.40
2018-02-08T14:36:48.379Z,3.50
2018-02-08T14:39:15.974Z,3.50
2018-02-08T14:41:44.215Z,3.30
2018-02-08T14:44:11.711Z,3.30
2018-02-08T14:46:39.987Z,3.20
2018-02-08T14:49:08.346Z,3.10
2018-02-08T14:51:36.603Z,3.10
2018-02-08T14:54:04.093Z,3.00
2018-02-08T14:56:32.352Z,3.00
2018-02-08T14:59:00.065Z,2.90
2018-02-08T15:01:27.584Z,3.00
2018-02-08T15:03:55.830Z,3.00
2018-02-08T15:06:23.582Z,2.90
2018-02-08T15:09:03.680Z,3.00
2018-02-08T15:11:31.540Z,3.00
2018-02-08T15:13:59.132Z,2.90
2018-02-08T15:16:26.828Z,2.80
2018-02-08T15:18:54.934Z,2.80
2018-02-08T15:21:22.545Z,2.80
2018-02-08T15:23:50.115Z,2.80
2018-02-08T15:26:17.747Z,2.70
2018-02-08T15:28:45.283Z,2.60
2018-02-08T15:31:13.617Z,2.40
2018-02-08T15:33:41.375Z,2.40
2018-02-08T15:36:08.937Z,2.40
2018-02-08T15:38:36.593Z,2.30
2018-02-08T15:41:04.336Z,2.20
2018-02-08T15:43:31.965Z,2.10
2018-02-08T15:46:00.341Z,2.00
2018-02-08T15:48:27.879Z,2.00
2018-02-08T15:50:56.344Z,1.90
2018-02-08T15:53:23.966Z,1.90
2018-02-08T15:55:51.742Z,1.90
2018-02-08T15:58:19.420Z,1.80
2018-02-08T16:00:47.008Z,1.80
2018-02-08T16:03:14.568Z,1.70
2018-02-08T16:05:42.050Z,1.80
2018-02-08T16:08:10.298Z,1.60
2018-02-08T16:10:38.648Z,1.60
2018-02-08T16:13:06.164Z,1.60
2018-02-08T16:15:34.416Z,1.60
2018-02-08T16:18:02.676Z,1.60
2018-02-08T16:20:30.166Z,1.60
2018-02-08T16:22:57.643Z,1.50
2018-02-08T16:25:25.894Z,1.50
2018-02-08T16:27:53.375Z,1.50
2018-02-08T16:30:21.624Z,1.50
2018-02-08T16:32:50.631Z,1.40
2018-02-08T16:35:18.241Z,1.40
2018-02-08T16:37:45.767Z,1.40
2018-02-08T16:40:14.037Z,1.40
2018-02-08T16:42:42.294Z,1.30
2018-02-08T16:45:09.871Z,1.30
2018-02-08T16:47:38.151Z,1.40
2018-02-08T16:50:06.389Z,1.30
2018-02-08T16:52:33.873Z,1.30
2018-02-08T16:55:01.631Z,1.30
2018-02-08T16:57:29.106Z,1.30
2018-02-08T16:59:57.376Z,1.30
2018-02-08T17:02:25.963Z,1.30
2018-02-08T17:04:54.230Z,1.30
2018-02-08T17:07:21.710Z,1.30
2018-02-08T17:09:49.962Z,1.20
2018-02-08T17:12:17.536Z,1.20
2018-02-08T17:14:45.778Z,1.20
2018-02-08T17:17:13.374Z,1.20
2018-02-08T17:19:41.650Z,1.20
2018-02-08T17:22:09.958Z,1.20
2018-02-08T17:24:37.448Z,1.20
2018-02-08T17:27:04.925Z,1.20
2018-02-08T17:29:32.406Z,1.10
2018-02-08T17:32:00.689Z,1.20
2018-02-08T17:34:28.950Z,1.20
2018-02-08T17:36:57.677Z,1.20
2018-02-08T17:39:25.165Z,1.20
2018-02-08T17:41:52.645Z,1.20
2018-02-08T17:44:20.121Z,1.20
2018-02-08T17:46:48.431Z,1.20
2018-02-08T17:49:15.909Z,1.20
2018-02-08T17:51:43.411Z,1.20
2018-02-08T17:54:11.667Z,1.20
2018-02-08T17:56:39.150Z,1.20
2018-02-08T17:59:07.434Z,1.10
2018-02-08T18:01:35.698Z,1.20
2018-02-08T18:04:03.950Z,1.10
2018-02-08T18:06:33.218Z,1.10
2018-02-08T18:09:00.726Z,1.10
2018-02-08T18:11:28.990Z,1.20
2018-02-08T18:13:56.477Z,1.20
2018-02-08T18:16:24.743Z,1.20
2018-02-08T18:18:53.022Z,1.20
2018-02-08T18:21:21.262Z,1.10
2018-02-08T18:23:48.764Z,1.10
2018-02-08T18:26:17.019Z,1.10
2018-02-08T18:28:44.617Z,1.10
2018-02-08T18:31:12.151Z,1.20
2018-02-08T18:33:40.405Z,1.20
2018-02-08T18:36:07.877Z,1.20
2018-02-08T18:38:36.160Z,1.20
2018-02-08T18:41:04.435Z,1.20
2018-02-08T18:43:32.712Z,1.20
2018-02-08T18:46:00.991Z,1.20
2018-02-08T18:48:29.251Z,1.20
2018-02-08T18:50:56.740Z,1.10
2018-02-08T18:53:25.050Z,1.10
2018-02-08T18:55:53.259Z,1.20
2018-02-08T18:58:20.738Z,1.10
2018-02-08T19:00:49.014Z,1.10
2018-02-08T19:03:17.262Z,1.10
2018-02-08T19:05:44.747Z,1.10
2018-02-08T19:08:13.010Z,1.10
2018-02-08T19:10:40.823Z,1.10
2018-02-08T19:13:08.296Z,1.00
2018-02-08T19:15:35.786Z,1.10
2018-02-08T19:18:03.362Z,1.00
2018-02-08T19:20:31.624Z,1.00
2018-02-08T19:22:59.133Z,1.00
2018-02-08T19:25:26.635Z,1.00
2018-02-08T19:27:55.635Z,1.00
2018-02-08T19:30:24.637Z,1.00
2018-02-08T19:32:52.886Z,0.90
2018-02-08T19:35:20.384Z,0.90
2018-02-08T19:37:48.659Z,0.90
2018-02-08T19:40:16.908Z,0.90
2018-02-08T19:42:44.447Z,0.90
2018-02-08T19:45:11.935Z,0.90
2018-02-08T19:47:39.579Z,0.90
2018-02-08T19:50:07.053Z,0.90
2018-02-08T19:52:34.561Z,0.90
2018-02-08T19:55:02.039Z,0.80
2018-02-08T19:57:29.543Z,0.80
2018-02-08T19:59:57.043Z,0.80
2018-02-08T20:02:24.526Z,0.80
2018-02-08T20:04:52.022Z,0.80
2018-02-08T20:07:20.285Z,0.80
2018-02-08T20:09:47.766Z,0.80
2018-02-08T20:12:16.020Z,0.80
2018-02-08T20:14:46.085Z,0.80
2018-02-08T20:17:13.574Z,0.80
2018-02-08T20:19:41.052Z,0.80
2018-02-08T20:22:08.533Z,0.70
2018-02-08T20:24:36.774Z,0.70
2018-02-08T20:27:04.256Z,0.70
2018-02-08T20:29:31.826Z,0.70
2018-02-08T20:32:00.067Z,0.70
2018-02-08T20:34:27.561Z,0.70
2018-02-08T20:37:04.074Z,0.60
2018-02-08T20:39:31.599Z,0.60
2018-02-08T20:41:59.867Z,0.60
2018-02-08T20:44:28.791Z,0.60
2018-02-08T20:46:56.275Z,0.60
2018-02-08T20:49:23.759Z,0.60
2018-02-08T20:51:51.265Z,0.70
2018-02-08T20:54:18.745Z,0.70
2018-02-08T20:56:46.255Z,0.60
2018-02-08T20:59:14.511Z,0.60
2018-02-08T21:01:42.011Z,0.60
2018-02-08T21:04:09.674Z,0.60
2018-02-08T21:06:37.182Z,0.70
2018-02-08T21:09:05.432Z,0.70
2018-02-08T21:11:32.943Z,0.70
2018-02-08T21:14:00.414Z,0.70
2018-02-08T21:16:27.906Z,0.70
2018-02-08T21:18:55.418Z,0.70
2018-02-08T21:21:23.689Z,0.80
2018-02-08T21:23:51.934Z,0.80
2018-02-08T21:26:20.922Z,0.80
2018-02-08T21:28:48.799Z,0.80
2018-02-08T21:31:16.274Z,0.80
2018-02-08T21:33:43.776Z,0.90
2018-02-08T21:36:11.283Z,0.80
2018-02-08T21:38:39.527Z,0.90
2018-02-08T21:41:06.999Z,0.90
2018-02-08T21:43:34.504Z,0.90
2018-02-08T21:46:02.759Z,0.90
2018-02-08T21:48:31.001Z,0.90
2018-02-08T21:50:58.547Z,0.90
2018-02-08T21:53:26.027Z,0.90
2018-02-08T21:55:53.501Z,0.90
2018-02-08T21:58:21.773Z,1.00
2018-02-08T22:00:50.795Z,0.90
2018-02-08T22:03:19.073Z,0.90
2018-02-08T22:05:47.330Z,0.90
2018-02-08T22:08:15.631Z,0.80
2018-02-08T22:10:43.878Z,0.80
2018-02-08T22:13:11.371Z,0.80
2018-02-08T22:15:39.619Z,0.70
2018-02-08T22:18:07.103Z,0.70
2018-02-08T22:20:35.968Z,0.70
2018-02-08T22:23:03.538Z,0.60
2018-02-08T22:25:31.782Z,0.60
2018-02-08T22:27:59.370Z,0.60
2018-02-08T22:30:26.845Z,0.60
2018-02-08T22:32:55.090Z,0.60
2018-02-08T22:35:22.578Z,0.60
2018-02-08T22:37:50.828Z,0.60
2018-02-08T22:40:19.810Z,0.60
2018-02-08T22:42:47.298Z,0.60
2018-02-08T22:45:15.541Z,0.60
2018-02-08T22:47:43.018Z,0.50
2018-02-08T22:50:11.273Z,0.50
2018-02-08T22:52:38.753Z,0.50
2018-02-08T22:55:06.331Z,0.50
2018-02-08T22:57:34.608Z,0.60
2018-02-08T23:00:02.849Z,0.60
2018-02-08T23:02:30.329Z,0.50
2018-02-08T23:04:57.831Z,0.60
2018-02-08T23:07:25.319Z,0.60
2018-02-08T23:09:52.818Z,0.70
2018-02-08T23:12:21.113Z,0.60
2018-02-08T23:14:48.655Z,0.60
2018-02-08T23:17:16.928Z,0.60
2018-02-08T23:19:45.199Z,0.60
2018-02-08T23:22:12.765Z,0.60
2018-02-08T23:24:41.038Z,0.60
2018-02-08T23:27:09.314Z,0.60
2018-02-08T23:29:37.558Z,0.60
2018-02-08T23:32:05.042Z,0.60
2018-02-08T23:34:32.602Z,0.60
2018-02-08T23:37:00.173Z,0.60
2018-02-08T23:39:28.422Z,0.60
2018-02-08T23:41:55.914Z,0.60
2018-02-08T23:44:24.158Z,0.60
2018-02-08T23:46:51.645Z,0.60
2018-02-08T23:49:19.901Z,0.60
2018-02-08T23:51:47.379Z,0.60
2018-02-08T23:54:15.629Z,0.50
2018-02-08T23:56:43.121Z,0.50
2018-02-08T23:59:11.363Z,0.50
